Bg Felixstowe — V2BR7 — position and weather

sailwx.info

Track history (hours):
 
Tides and Currents Weather Stations Pressure Air Temp Water Temp Dewpoint Dewpoint Depression Visibility Wind Speed Wind Dir Waves Ship Positions

Bg Felixstowe

Last reported at 2016-May-02 15:26 UTC. Time now 2016-May-05 06:41 UTC.
Position N 25°34' W 080°01'.

Length 139 m; draft 6.2 m.

Type: Ship. MMSI: 304906000.

Date/timePositionNaut miles runAvg speedWind from/ knotsBaromVisibWave heightAir tempDewpointWater temp
2016-May-02 15:26N 25°34' W 080°01'1111.9
2016-May-02 14:33N 25°44' W 080°04'5 5.1
2016-May-02 13:29N 25°46' W 080°10'0 0.0
2016-May-02 11:25N 25°46' W 080°10'0 0.0
2016-May-02 09:27N 25°46' W 080°10'0 0.0
2016-May-02 04:28N 25°46' W 080°10'0 0.0
2016-May-02 02:30N 25°46' W 080°10'0 0.0
2016-May-01 23:12N 25°46' W 080°10'2 3.2
2016-May-01 22:34N 25°46' W 080°07'7 7.3
2016-May-01 21:33N 25°41' W 080°01'  
2016-Apr-25 12:33N 25°37' W 080°00'1211.1
2016-Apr-25 11:27N 25°46' W 080°09'1 0.0
2016-Apr-24 18:25N 25°46' W 080°10'7 8.4
2016-Apr-24 17:34N 25°43' W 080°03'  
Track history (hours):
 
Tides and Currents Weather Stations Pressure Air Temp Water Temp Dewpoint Dewpoint Depression Visibility Wind Speed Wind Dir Waves Ship Positions

Bg Felixstowe

Last reported at 2016-May-02 15:26 UTC. Time now 2016-May-05 06:41 UTC.
Position N 25°34' W 080°01'.

Length 139 m; draft 6.2 m.

Type: Ship. MMSI: 304906000.

Date/timePositionNaut miles runAvg speedWind from/ knotsBaromVisibWave heightAir tempDewpointWater temp
2016-May-02 15:26N 25°34' W 080°01'1111.9
2016-May-02 14:33N 25°44' W 080°04'5 5.1
2016-May-02 13:29N 25°46' W 080°10'0 0.0
2016-May-02 11:25N 25°46' W 080°10'0 0.0
2016-May-02 09:27N 25°46' W 080°10'0 0.0
2016-May-02 04:28N 25°46' W 080°10'0 0.0
2016-May-02 02:30N 25°46' W 080°10'0 0.0
2016-May-01 23:12N 25°46' W 080°10'2 3.2
2016-May-01 22:34N 25°46' W 080°07'7 7.3
2016-May-01 21:33N 25°41' W 080°01'  
2016-Apr-25 12:33N 25°37' W 080°00'1211.1
2016-Apr-25 11:27N 25°46' W 080°09'1 0.0
2016-Apr-24 18:25N 25°46' W 080°10'7 8.4
2016-Apr-24 17:34N 25°43' W 080°03'  

Dump ship's entire track history